Uriel Rodriguez

Recruteur - Monterrey
4 Juin 2028
Dimanche
Processus

Personnalité

Adaptabilité (7) Ambition (10) Controverse (2) Loyauté (7) Pression (13) Professionnalisme (8) Sportivité (14) Tempérament (15)

Profil

Style d'entraînement Démocratique
Diplôme Continental B
Détermination 15
Gestion des joueurs 6
Motivation 8
Discipline 14
Satisfaction professionnelle
100%
Fatigue
0%
Rôle Recruteur
Salaire 78.6K p/s
Contrat 14.03.2030

Performance

Comportement Bon
Efficacité de l'entraînement
50%
Développement des joueurs
55%
Prévention des blessures
35%
Mise en place tactique
45%

Événements récents

A évalué un joueur maintenant
Anniversaire 7j

Suivi en cours

96
Joueur Club Statut Capacité Confiance Observé Dernière observation Dernier vote
Alejandro Rodríguez Zaragoza Actif 133 / 122 40% 2 02.06.2028 -
Aaron Ramsdale Southampton Actif 156 / 158 40% 1 02.06.2028 -
Víctor Guzmán Toluca Perdu 137 / 130 62% 1 01.06.2028 -
Ayrton Costa Boca Juniors Actif 123 / 144 40% 2 31.01.2028 -
Agustín Giay Palmeiras Actif 136 / 138 40% 2 31.01.2028 -
Luciano Juba Bahia Actif 134 / 129 40% 2 26.01.2028 -
Beñat Turrientes Real Sociedad Actif 149 / 147 40% 1 26.01.2028 -
Luís Esteves Atlas Actif 121 / 132 40% 3 25.01.2028 -
Víctor Chust Elche Actif 142 / 145 40% 1 25.01.2028 -
Marcos Antonio Sport Recife Actif 138 / 133 40% 2 22.01.2028 -
Pape Guèye Villarreal Actif 154 / 150 40% 1 21.01.2028 -
Felipe Peña Biafore Lanús Actif 119 / 132 40% 1 20.01.2028 -
Tomás Silva Platense Actif 136 / 125 40% 2 19.01.2028 -
Lucas Piton Vasco da Gama Actif 129 / 130 40% 1 19.01.2028 -
Danilo Botafogo Actif 144 / 150 40% 1 18.01.2028 -
Ignacio Perruzzi San Lorenzo Actif 130 / 130 40% 1 02.01.2028 -
Kevin Zenón Boca Juniors Actif 140 / 122 40% 1 31.08.2027 -
Martín Ojeda Orlando City Actif 130 / 135 40% 2 28.08.2027 -
Chris Brady Chicago Fire Actif 131 / 128 40% 1 28.08.2027 -
Diego Conde Sevilla Actif 144 / 148 40% 1 28.08.2027 -
Gabriel Brazão Santos Actif 144 / 134 40% 1 26.08.2027 -
Nahuel Furtado Wanderers Actif 121 / 118 40% 1 26.08.2027 -
Sebastián Meza Huracán Actif 139 / 126 40% 1 24.08.2027 -
Sergio Rangel La Equidad Actif 118 / 117 40% 2 21.08.2027 -
Gastón Togni Defensa y Justicia Actif 125 / 127 40% 1 21.08.2027 -
Lucas Da Cunha Como Actif 152 / 139 40% 1 18.08.2027 -
Cristian Shpendi Cesena Actif 131 / 136 40% 1 18.08.2027 -
Santiago Silva Boston River Actif 127 / 125 40% 1 18.08.2027 -
Álvaro Fernández Gijón Actif 145 / 143 40% 1 18.08.2027 -
Javi Puado Espanyol Actif 142 / 149 40% 1 15.08.2027 -
Jesús Vázquez Valencia Actif 140 / 139 40% 1 15.08.2027 -
Roberto López Leganés Actif 144 / 145 40% 3 14.08.2027 -
Álex Lizancos Burgos Actif 137 / 138 40% 1 14.08.2027 -
Jon Morcillo Almería Actif 144 / 132 40% 3 13.08.2027 -
Diego Pampín Granada Actif 125 / 117 40% 2 13.08.2027 -
Manu Morlanes Mallorca Actif 136 / 133 40% 2 12.08.2027 -
Enrique Clemente Las Palmas Actif 133 / 127 40% 1 11.08.2027 -
Fer Niño Elche Actif 125 / 134 40% 2 10.08.2027 -
Toni Martínez Alavés Actif 151 / 143 40% 1 10.08.2027 -
Yassine Kechta Leganés Actif 137 / 127 40% 2 09.08.2027 -
Urko Izeta Cádiz Actif 130 / 140 40% 2 09.08.2027 -
Aaron Connolly Leyton Orient Actif 134 / 129 40% 2 08.08.2027 -
Ali Ahmed Norwich City Actif 133 / 134 40% 1 08.08.2027 -
Anthony Patterson Wrexham Actif 145 / 141 40% 1 07.08.2027 -
Adrià Altimira Deportivo La Coruña Actif 135 / 131 40% 1 07.08.2027 -
Álex Forés Burgos Actif 140 / 122 40% 2 06.08.2027 -
Ezequiel Ponce Elche Actif 134 / 131 40% 1 06.08.2027 -
Elijah Adebayo Luton Town Actif 133 / 129 40% 2 04.08.2027 -
Isaiah Jones Luton Town Actif 123 / 118 40% 1 29.07.2027 -
Ronald Swansea City Actif 126 / 130 40% 1 29.07.2027 -
Joe Gelhardt Hull City Actif 140 / 139 40% 1 27.07.2027 -
Manu Fuster Las Palmas Actif 137 / 143 40% 1 25.07.2027 -
Martim Neto Elche Actif 138 / 131 40% 1 21.07.2027 -
Marvin Park Las Palmas Actif 125 / 137 40% 1 21.07.2027 -
Robin Risser RC Lens Actif 148 / 153 40% 1 21.07.2027 -
Adalberto Carrasquilla Pumas UNAM Actif 141 / 137 40% 1 19.07.2027 -
Sidiki Chérif Coventry City Actif 127 / 130 40% 1 15.07.2027 -
Jonathan Rowe Bologna Actif 137 / 140 40% 1 15.07.2027 -
Oleksandr Saputin Zorya Actif 114 / 138 40% 1 14.07.2027 -
Lois Mignolet Racing Genk Actif 148 / 141 40% 1 14.07.2027 -
Alfredo Quintero La Equidad Actif 126 / 123 40% 3 11.07.2027 -
Pável Pérez Toluca Actif 140 / 134 40% 1 11.07.2027 -
Ross McCrorie Bristol City Actif 138 / 123 40% 1 10.07.2027 -
Ismael Díaz Leon Actif 130 / 133 40% 4 09.07.2027 -
Lazar Carević Famalicao Actif 127 / 128 40% 1 09.07.2027 -
Ilias Sebaoui Sint-Truiden Actif 129 / 140 40% 1 07.07.2027 -
Deniz Ertaş Konyaspor Actif 108 / 120 40% 1 06.07.2027 -
Bilal Bayazıt Kayserispor Actif 132 / 132 40% 1 06.07.2027 -
Nicolás Castro Toluca Actif 133 / 134 40% 1 04.07.2027 -
Marcel Ruiz FC Nordsjaelland Actif 136 / 147 40% 2 02.07.2027 -
Alessio Zerbin Frosinone Actif 131 / 140 40% 1 02.07.2027 -
Gorka Guruzeta Athletic Bilbao Actif 148 / 135 40% 1 02.07.2027 -
Rafik Guitane Estoril Praia Actif 136 / 121 40% 1 30.06.2027 -
Tomás Durso Atlético Tucumán Actif 131 / 135 40% 1 29.06.2027 -
Samuele Birindelli Monza Actif 138 / 124 40% 1 26.06.2027 -
Demba Thiam Monza Actif 132 / 115 40% 1 26.06.2027 -
Diego Enríquez Sporting Cristal Actif 135 / 123 40% 1 26.06.2027 -
Adam Randell Bristol City Actif 127 / 136 40% 2 24.06.2027 -
Fashion Sakala Al-Fayha Actif 138 / 145 40% 1 24.06.2027 -
Nathan Trott Cardiff City Actif 123 / 129 40% 1 24.06.2027 -
Samed Baždar Sint-Truiden Actif 128 / 127 40% 1 21.06.2027 -
Brian Rodríguez Club America Actif 134 / 129 40% 1 21.06.2027 -
Jeremy Márquez Cruz Azul Actif 135 / 120 40% 1 20.06.2027 -
Jorge Sánchez Atlas Actif 125 / 120 40% 1 20.06.2027 -
Jérémy Livolant Casa Pia Actif 126 / 137 40% 1 19.06.2027 -
Adriel Torreense Actif 126 / 128 40% 1 18.06.2027 -
Marwan Ateya Al Ahly Actif 117 / 131 40% 1 18.06.2027 -
Ciprian Dragusin Krasnodar Actif 131 / 151 40% 1 17.06.2027 -
Alexandr Sobolev Zenit Actif 147 / 143 40% 1 17.06.2027 -
Richard Ledezma Guadalajara Actif 150 / 139 40% 1 14.06.2027 -
Ezequiel Bullaude Santos Laguna Actif 117 / 136 40% 1 14.06.2027 -
Alessandro Bianco Modena Actif 129 / 135 40% 1 12.06.2027 -
Jesús Angulo Tigres Actif 141 / 149 40% 1 08.06.2027 -
Erik Prekop Gornik Zabrze Actif 141 / 108 40% 1 06.06.2027 -
Bryan González Guadalajara Actif 142 / 118 40% 1 03.06.2027 -
Fernando Beltrán Leon Actif 135 / 113 40% 1 02.06.2027 -